createdAt,value
2023-02-11T00:02:31.898Z,69.40
2023-02-11T00:05:36.286Z,69.38
2023-02-11T00:08:40.888Z,76.90
2023-02-11T00:11:45.325Z,89.82
2023-02-11T00:14:49.988Z,78.40
2023-02-11T00:17:54.204Z,98.03
2023-02-11T00:20:58.480Z,77.13
2023-02-11T00:24:03.020Z,98.65
2023-02-11T00:27:07.476Z,69.32
2023-02-11T00:30:12.279Z,74.47
2023-02-11T00:33:16.571Z,80.18
2023-02-11T00:36:26.793Z,80.65
2023-02-11T00:39:31.725Z,84.53
2023-02-11T00:42:37.361Z,88.28
2023-02-11T00:45:41.839Z,88.00
2023-02-11T00:48:46.395Z,89.90
2023-02-11T00:51:51.003Z,92.70
2023-02-11T00:54:55.484Z,113.88
2023-02-11T00:58:00.068Z,104.25
2023-02-11T01:01:05.063Z,89.32
2023-02-11T01:04:09.745Z,90.07
2023-02-11T01:07:14.542Z,94.00
2023-02-11T01:10:19.110Z,107.88
2023-02-11T01:13:24.097Z,95.37
2023-02-11T01:16:28.571Z,90.10
2023-02-11T01:19:33.177Z,105.93
2023-02-11T01:22:39.553Z,94.30
2023-02-11T01:25:44.671Z,88.72
2023-02-11T01:28:49.250Z,86.47
2023-02-11T01:31:53.822Z,91.93
2023-02-11T01:34:58.249Z,82.63
2023-02-11T01:38:02.743Z,98.70
2023-02-11T01:41:10.087Z,78.60
2023-02-11T01:44:27.238Z,74.85
2023-02-11T01:47:31.341Z,84.75
2023-02-11T01:50:37.188Z,86.80
2023-02-11T01:54:01.144Z,73.45
2023-02-11T01:57:22.069Z,89.07
2023-02-11T02:00:38.837Z,70.00
2023-02-11T02:03:46.740Z,66.97
2023-02-11T02:06:59.157Z,92.40
2023-02-11T02:10:09.394Z,66.82
2023-02-11T02:13:14.778Z,53.05
2023-02-11T02:16:21.829Z,60.38
2023-02-11T02:19:58.348Z,61.97
2023-02-11T02:23:06.033Z,55.95
2023-02-11T02:26:37.043Z,42.65
2023-02-11T02:29:50.322Z,48.38
2023-02-11T02:33:22.521Z,45.72
2023-02-11T02:36:48.976Z,53.42
2023-02-11T02:39:54.116Z,47.55
2023-02-11T02:43:00.790Z,51.20
2023-02-11T02:46:19.861Z,42.38
2023-02-11T02:49:24.430Z,44.97
2023-02-11T02:52:55.167Z,40.13
2023-02-11T02:56:30.336Z,53.50
2023-02-11T03:00:08.690Z,42.95
2023-02-11T03:03:35.488Z,42.17
2023-02-11T03:07:02.870Z,39.78
2023-02-11T03:10:25.397Z,44.78
2023-02-11T03:13:33.686Z,52.65
2023-02-11T03:16:39.483Z,48.42
2023-02-11T03:19:46.618Z,38.63
2023-02-11T03:23:01.534Z,41.70
2023-02-11T03:26:22.730Z,34.40
2023-02-11T03:29:45.234Z,42.88
2023-02-11T03:32:55.554Z,38.42
2023-02-11T03:36:07.696Z,39.47
2023-02-11T03:39:16.711Z,31.50
2023-02-11T03:42:24.551Z,33.47
2023-02-11T03:45:30.536Z,28.38
2023-02-11T03:48:44.310Z,38.65
2023-02-11T03:51:52.592Z,33.28
2023-02-11T03:55:00.217Z,27.50
2023-02-11T03:58:04.739Z,38.50
2023-02-11T04:01:10.434Z,32.00
2023-02-11T04:04:15.038Z,44.20
2023-02-11T04:07:19.225Z,53.80
2023-02-11T04:10:23.771Z,50.42
2023-02-11T04:13:28.228Z,29.70
2023-02-11T04:16:32.604Z,40.57
2023-02-11T04:19:37.284Z,46.28
2023-02-11T04:22:41.744Z,40.28
2023-02-11T04:25:46.010Z,32.38
2023-02-11T04:28:50.879Z,35.55
2023-02-11T04:31:56.086Z,37.30
2023-02-11T04:38:05.284Z,26.65
2023-02-11T04:41:09.624Z,47.92
2023-02-11T04:44:14.216Z,22.58
2023-02-11T04:47:19.106Z,23.05
2023-02-11T04:50:23.738Z,18.83
2023-02-11T04:53:28.250Z,24.17
2023-02-11T04:56:32.749Z,18.73
2023-02-11T04:59:36.972Z,19.85
2023-02-11T05:02:41.586Z,18.80
2023-02-11T05:05:46.168Z,21.30
2023-02-11T05:08:50.805Z,20.35
2023-02-11T05:11:55.048Z,26.80
2023-02-11T05:14:59.392Z,26.55
2023-02-11T05:18:03.999Z,19.92
2023-02-11T05:21:14.783Z,24.83
2023-02-11T05:24:18.933Z,19.58
2023-02-11T05:27:23.680Z,20.63
2023-02-11T05:30:28.362Z,21.42
2023-02-11T05:33:33.588Z,23.02
2023-02-11T05:36:38.024Z,22.90
2023-02-11T05:39:42.450Z,20.15
2023-02-11T05:42:47.024Z,22.83
2023-02-11T05:45:52.068Z,19.83
2023-02-11T05:48:56.875Z,18.55
2023-02-11T05:52:01.460Z,35.58
2023-02-11T05:55:06.101Z,24.98
2023-02-11T05:58:11.203Z,25.42
2023-02-11T06:01:15.336Z,28.75
2023-02-11T06:04:19.825Z,36.03
2023-02-11T06:07:24.190Z,21.77
2023-02-11T06:10:28.611Z,24.83
2023-02-11T06:13:32.824Z,21.03
2023-02-11T06:16:37.507Z,25.90
2023-02-11T06:19:41.651Z,17.27
2023-02-11T06:22:46.283Z,25.85
2023-02-11T06:25:51.321Z,17.50
2023-02-11T06:28:55.720Z,26.27
2023-02-11T06:32:00.344Z,19.90
2023-02-11T06:35:04.993Z,25.45
2023-02-11T06:38:09.517Z,24.15
2023-02-11T06:41:16.381Z,26.88
2023-02-11T06:44:20.860Z,22.35
2023-02-11T06:47:25.541Z,19.50
2023-02-11T06:50:30.179Z,29.83
2023-02-11T06:53:37.433Z,22.23
2023-02-11T06:56:41.907Z,30.52
2023-02-11T06:59:46.622Z,11.63
2023-02-11T07:02:50.992Z,23.77
2023-02-11T07:05:55.258Z,17.07
2023-02-11T07:08:59.684Z,22.07
2023-02-11T07:12:04.731Z,21.42
2023-02-11T07:15:09.373Z,16.83
2023-02-11T07:18:14.801Z,22.10
2023-02-11T07:21:21.908Z,20.58
2023-02-11T07:24:26.407Z,24.08
2023-02-11T07:27:30.612Z,13.15
2023-02-11T07:30:34.804Z,17.43
2023-02-11T07:33:39.792Z,19.80
2023-02-11T07:36:45.164Z,21.85
2023-02-11T07:39:49.576Z,29.05
2023-02-11T07:42:54.064Z,27.42
2023-02-11T07:45:59.029Z,22.85
2023-02-11T07:49:03.674Z,15.93
2023-02-11T07:52:08.302Z,23.65
2023-02-11T07:55:12.664Z,20.30
2023-02-11T07:58:16.853Z,19.87
2023-02-11T08:01:25.377Z,19.52
2023-02-11T08:04:29.884Z,34.83
2023-02-11T08:07:34.448Z,26.85
2023-02-11T08:10:38.953Z,23.40
2023-02-11T08:13:44.331Z,21.52
2023-02-11T08:19:53.281Z,13.23
2023-02-11T08:22:57.871Z,20.25
2023-02-11T08:26:09.086Z,23.80
2023-02-11T08:29:16.168Z,18.75
2023-02-11T08:32:21.278Z,17.13
2023-02-11T08:35:26.119Z,16.15
2023-02-11T08:38:30.423Z,22.70
2023-02-11T08:41:35.220Z,18.98
2023-02-11T08:44:39.731Z,27.63
2023-02-11T08:47:44.204Z,20.73
2023-02-11T08:50:48.527Z,19.13
2023-02-11T08:53:55.230Z,21.95
2023-02-11T08:57:01.824Z,23.60
2023-02-11T09:00:07.409Z,22.77
2023-02-11T09:06:18.502Z,23.27
2023-02-11T09:09:22.861Z,19.73
2023-02-11T09:12:26.945Z,22.80
2023-02-11T09:15:31.728Z,32.28
2023-02-11T09:21:40.486Z,22.45
2023-02-11T09:24:44.816Z,30.83
2023-02-11T09:27:49.794Z,24.98
2023-02-11T09:30:54.258Z,26.88
2023-02-11T09:34:01.990Z,23.10
2023-02-11T09:37:06.404Z,23.42
2023-02-11T09:40:12.660Z,28.65
2023-02-11T09:43:24.820Z,28.58
2023-02-11T09:46:34.437Z,28.48
2023-02-11T09:49:48.470Z,24.45
2023-02-11T09:53:13.299Z,18.20
2023-02-11T09:56:17.870Z,24.15
2023-02-11T09:59:22.628Z,22.85
2023-02-11T10:02:47.036Z,22.45
2023-02-11T10:06:01.840Z,29.83
2023-02-11T10:09:34.599Z,25.10
2023-02-11T10:12:51.414Z,35.78
2023-02-11T10:16:04.607Z,21.10
2023-02-11T10:19:20.527Z,26.63
2023-02-11T10:22:31.110Z,24.00
2023-02-11T10:25:45.532Z,23.88
2023-02-11T10:28:54.243Z,31.90
2023-02-11T10:32:00.282Z,34.33
2023-02-11T10:35:15.307Z,40.17
2023-02-11T10:38:19.760Z,34.75
2023-02-11T10:41:36.809Z,20.85
2023-02-11T10:44:59.661Z,37.53
2023-02-11T10:48:06.315Z,29.92
2023-02-11T10:51:15.633Z,32.47
2023-02-11T10:54:21.198Z,34.83
2023-02-11T10:57:42.691Z,25.33
2023-02-11T11:00:53.721Z,29.15
2023-02-11T11:03:59.946Z,27.13
2023-02-11T11:07:28.150Z,27.67
2023-02-11T11:10:44.509Z,25.42
2023-02-11T11:13:58.103Z,31.08
2023-02-11T11:17:03.217Z,35.70
2023-02-11T11:20:18.498Z,35.17
2023-02-11T11:23:24.685Z,50.88
2023-02-11T11:26:49.721Z,28.52
2023-02-11T11:33:02.002Z,31.13
2023-02-11T11:36:09.560Z,38.03
2023-02-11T11:39:22.339Z,36.88
2023-02-11T11:42:31.806Z,26.70
2023-02-11T11:45:36.137Z,37.80
2023-02-11T11:48:46.943Z,24.02
2023-02-11T11:52:31.990Z,29.13
2023-02-11T11:55:47.185Z,41.13
2023-02-11T11:58:51.836Z,31.25
2023-02-11T12:02:08.512Z,34.47
2023-02-11T12:05:18.573Z,38.13
2023-02-11T12:08:34.232Z,33.35
2023-02-11T12:12:09.032Z,29.25
2023-02-11T12:15:25.209Z,37.40
2023-02-11T12:19:14.452Z,34.92
2023-02-11T12:22:35.734Z,40.05
2023-02-11T12:25:54.312Z,31.58
2023-02-11T12:29:19.246Z,28.23
2023-02-11T12:32:49.246Z,36.88
2023-02-11T12:36:15.036Z,29.80
2023-02-11T12:39:47.710Z,37.80
2023-02-11T12:43:18.222Z,36.17
2023-02-11T12:46:47.671Z,35.58
2023-02-11T12:50:23.854Z,26.75
2023-02-11T12:53:55.567Z,33.70
2023-02-11T12:57:34.589Z,39.65
2023-02-11T13:00:53.323Z,29.58
2023-02-11T13:04:09.143Z,35.25
2023-02-11T13:07:28.574Z,34.50
2023-02-11T13:10:36.956Z,34.30
2023-02-11T13:14:10.296Z,35.63
2023-02-11T13:17:29.097Z,27.95
2023-02-11T13:20:55.435Z,33.03
2023-02-11T13:24:13.377Z,34.53
2023-02-11T13:27:40.650Z,36.05
2023-02-11T13:30:52.320Z,33.13
2023-02-11T13:33:56.886Z,36.05
2023-02-11T13:37:01.213Z,34.53
2023-02-11T13:40:22.831Z,34.25
2023-02-11T13:43:31.099Z,25.80
2023-02-11T13:46:54.938Z,30.70
2023-02-11T13:50:01.974Z,33.50
2023-02-11T13:53:08.759Z,28.92
2023-02-11T13:56:32.917Z,24.15
2023-02-11T13:59:36.910Z,28.10
2023-02-11T14:02:59.743Z,26.42
2023-02-11T14:06:30.672Z,22.45
2023-02-11T14:09:40.008Z,27.75
2023-02-11T14:13:22.769Z,30.10
2023-02-11T14:16:37.440Z,25.45
2023-02-11T14:19:47.398Z,30.20
2023-02-11T14:22:53.515Z,25.67
2023-02-11T14:26:22.514Z,35.72
2023-02-11T14:29:35.803Z,24.30
2023-02-11T14:32:58.181Z,35.08
2023-02-11T14:36:34.222Z,38.22
2023-02-11T14:39:55.984Z,40.08
2023-02-11T14:43:17.849Z,40.50
2023-02-11T14:46:24.887Z,42.00
2023-02-11T14:49:38.200Z,37.92
2023-02-11T14:52:43.532Z,39.65
2023-02-11T14:55:52.169Z,39.03
2023-02-11T14:58:57.027Z,42.28
2023-02-11T15:05:17.226Z,44.05
2023-02-11T15:08:21.657Z,42.47
2023-02-11T15:11:28.693Z,51.55
2023-02-11T15:14:35.620Z,33.85
2023-02-11T15:17:41.875Z,49.17
2023-02-11T15:20:48.175Z,39.45
2023-02-11T15:24:20.422Z,33.70
2023-02-11T15:27:25.766Z,41.22
2023-02-11T15:30:34.028Z,47.25
2023-02-11T15:33:38.527Z,44.08
2023-02-11T15:36:43.153Z,45.95
2023-02-11T15:39:48.218Z,40.22
2023-02-11T15:46:03.746Z,40.35
2023-02-11T15:49:19.124Z,48.30
2023-02-11T15:52:26.380Z,37.90
2023-02-11T15:55:31.208Z,54.08
2023-02-11T15:58:37.867Z,63.55
2023-02-11T16:01:42.883Z,44.20
2023-02-11T16:04:56.706Z,46.92
2023-02-11T16:08:12.410Z,50.53
2023-02-11T16:11:31.193Z,48.53
2023-02-11T16:14:37.133Z,46.25
2023-02-11T16:17:44.114Z,66.88
2023-02-11T16:20:50.057Z,41.95
2023-02-11T16:23:57.929Z,54.72
2023-02-11T16:27:05.267Z,63.13
2023-02-11T16:30:22.263Z,45.08
2023-02-11T16:33:26.733Z,63.53
2023-02-11T16:36:31.289Z,51.67
2023-02-11T16:39:36.198Z,65.30
2023-02-11T16:42:40.923Z,52.65
2023-02-11T16:45:46.290Z,42.00
2023-02-11T16:52:01.169Z,57.95
2023-02-11T16:55:06.187Z,66.68
2023-02-11T16:58:10.992Z,50.55
2023-02-11T17:01:15.441Z,47.88
2023-02-11T17:04:27.357Z,56.28
2023-02-11T17:07:32.308Z,48.58
2023-02-11T17:13:42.458Z,65.05
2023-02-11T17:16:48.031Z,47.80
2023-02-11T17:19:52.825Z,45.08
2023-02-11T17:22:58.028Z,61.40
2023-02-11T17:26:02.550Z,64.25
2023-02-11T17:29:08.318Z,45.55
2023-02-11T17:32:12.512Z,62.50
2023-02-11T17:35:17.435Z,44.97
2023-02-11T17:38:22.232Z,68.22
2023-02-11T17:41:26.704Z,59.85
2023-02-11T17:44:31.314Z,79.13
2023-02-11T17:47:36.321Z,59.65
2023-02-11T17:50:40.995Z,73.95
2023-02-11T17:53:46.637Z,69.43
2023-02-11T17:56:51.237Z,72.35
2023-02-11T17:59:55.617Z,61.30
2023-02-11T18:03:03.290Z,56.15
2023-02-11T18:06:08.288Z,59.55
2023-02-11T18:09:12.780Z,68.80
2023-02-11T18:12:24.973Z,77.18
2023-02-11T18:15:29.351Z,73.07
2023-02-11T18:18:33.512Z,53.63
2023-02-11T18:21:37.995Z,70.38
2023-02-11T18:24:43.159Z,85.57
2023-02-11T18:30:59.758Z,93.85
2023-02-11T18:34:07.430Z,95.88
2023-02-11T18:37:14.242Z,79.97
2023-02-11T18:40:18.818Z,60.83
2023-02-11T18:43:23.300Z,62.22
2023-02-11T18:46:27.431Z,74.47
2023-02-11T18:49:32.960Z,59.30
2023-02-11T18:52:38.411Z,61.53
2023-02-11T18:55:44.806Z,63.83
2023-02-11T18:58:51.241Z,70.25
2023-02-11T19:01:55.706Z,58.83
2023-02-11T19:05:00.396Z,64.00
2023-02-11T19:08:04.766Z,79.17
2023-02-11T19:11:08.728Z,63.07
2023-02-11T19:14:15.093Z,55.95
2023-02-11T19:17:19.333Z,61.78
2023-02-11T19:20:23.996Z,57.70
2023-02-11T19:23:28.487Z,67.82
2023-02-11T19:26:32.751Z,66.40
2023-02-11T19:29:37.689Z,57.58
2023-02-11T19:32:42.094Z,49.05
2023-02-11T19:35:46.477Z,62.23
2023-02-11T19:38:51.117Z,67.43
2023-02-11T19:41:55.620Z,67.13
2023-02-11T19:44:59.958Z,46.80
2023-02-11T19:48:05.262Z,44.63
2023-02-11T19:51:13.098Z,69.75
2023-02-11T19:54:18.693Z,60.10
2023-02-11T19:57:23.470Z,82.22
2023-02-11T20:00:28.250Z,77.60
2023-02-11T20:03:32.755Z,65.25
2023-02-11T20:06:37.023Z,89.00
2023-02-11T20:09:42.563Z,67.45
2023-02-11T20:12:47.091Z,63.15
2023-02-11T20:15:51.997Z,68.55
2023-02-11T20:18:56.609Z,78.57
2023-02-11T20:22:00.994Z,60.63
2023-02-11T20:25:05.751Z,63.80
2023-02-11T20:31:15.875Z,68.53
2023-02-11T20:34:21.849Z,60.72
2023-02-11T20:37:26.352Z,73.93
2023-02-11T20:40:30.693Z,86.87
2023-02-11T20:43:37.830Z,70.50
2023-02-11T20:46:46.022Z,67.47
2023-02-11T20:49:50.744Z,95.82
2023-02-11T20:52:55.100Z,76.78
2023-02-11T20:56:02.714Z,81.22
2023-02-11T20:59:07.447Z,81.40
2023-02-11T21:02:13.148Z,61.67
2023-02-11T21:05:17.836Z,83.82
2023-02-11T21:08:22.058Z,74.40
2023-02-11T21:11:26.421Z,68.07
2023-02-11T21:14:30.896Z,87.45
2023-02-11T21:17:35.444Z,65.72
2023-02-11T21:20:43.653Z,55.22
2023-02-11T21:23:48.482Z,70.35
2023-02-11T21:26:52.945Z,70.72
2023-02-11T21:29:57.166Z,63.35
2023-02-11T21:33:01.578Z,79.73
2023-02-11T21:36:07.927Z,57.25
2023-02-11T21:39:13.609Z,74.72
2023-02-11T21:42:18.329Z,67.93
2023-02-11T21:45:24.373Z,65.88
2023-02-11T21:48:28.764Z,84.43
2023-02-11T21:51:33.146Z,91.87
2023-02-11T21:54:37.692Z,84.28
2023-02-11T21:57:42.742Z,96.60
2023-02-11T22:00:47.166Z,61.40
2023-02-11T22:03:51.847Z,79.35
2023-02-11T22:06:56.287Z,73.47
2023-02-11T22:10:00.624Z,82.00
2023-02-11T22:13:05.145Z,74.30
2023-02-11T22:16:12.502Z,69.07
2023-02-11T22:19:17.254Z,82.15
2023-02-11T22:22:21.856Z,70.68
2023-02-11T22:25:25.974Z,71.60
2023-02-11T22:28:30.562Z,59.97
2023-02-11T22:31:35.397Z,76.18
2023-02-11T22:34:40.138Z,80.75
2023-02-11T22:37:44.572Z,77.93
2023-02-11T22:40:48.994Z,101.63
2023-02-11T22:43:53.333Z,69.78
2023-02-11T22:46:57.638Z,54.10
2023-02-11T22:50:02.161Z,63.28
2023-02-11T22:53:06.627Z,67.30
2023-02-11T22:56:15.378Z,52.50
2023-02-11T22:59:20.580Z,77.28
2023-02-11T23:02:25.435Z,72.57
2023-02-11T23:05:29.722Z,66.57
2023-02-11T23:08:34.451Z,50.20
2023-02-11T23:11:40.128Z,76.05
2023-02-11T23:14:44.995Z,90.75
2023-02-11T23:17:49.447Z,84.27
2023-02-11T23:20:53.884Z,104.65
2023-02-11T23:24:01.658Z,71.78
2023-02-11T23:27:06.096Z,81.20
2023-02-11T23:30:11.047Z,78.05
2023-02-11T23:33:15.646Z,70.97
2023-02-11T23:36:21.554Z,61.07
2023-02-11T23:39:26.094Z,84.63
2023-02-11T23:42:30.323Z,57.60
2023-02-11T23:45:34.637Z,102.32
2023-02-11T23:48:40.341Z,74.30
2023-02-11T23:51:45.124Z,64.20
2023-02-11T23:54:49.669Z,73.20
2023-02-11T23:57:54.024Z,58.97
